Time;durP1;ratioP1;P1;durP2;ratioP2;P2;SDS_P1;SDS_P2;PMS_P1;PMS_P2;Temp;Humidity;BMP_temperature;BMP_pressure;BME280_temperature;BME280_humidity;BME280_pressure;Samples;Min_cycle;Max_cycle;Signal;HPM_P1;HPM_P2
2023/11/15 00:02:18;;;;;;;15.95;7.82;;;;;;;7.34;100.00;92750.13;5043090;28;20049;-82
2023/11/15 00:04:44;;;;;;;13.80;6.80;;;;;;;7.42;100.00;92744.00;5042853;28;20083;-82
2023/11/15 00:07:11;;;;;;;13.10;7.03;;;;;;;7.49;100.00;92752.44;5048597;28;20045;-82
2023/11/15 00:09:38;;;;;;;10.40;5.80;;;;;;;7.53;100.00;92749.47;5053096;28;20040;-82
2023/11/15 00:12:06;;;;;;;13.45;7.20;;;;;;;7.60;100.00;92743.34;5061300;28;20458;-82
2023/11/15 00:14:34;;;;;;;13.30;6.25;;;;;;;7.68;100.00;92739.00;5048829;28;20044;-82
2023/11/15 00:17:02;;;;;;;9.85;4.05;;;;;;;7.55;100.00;92711.72;5050279;28;20063;-82
2023/11/15 00:19:30;;;;;;;8.27;3.35;;;;;;;7.80;100.00;92742.50;5050780;28;20064;-82
2023/11/15 00:21:57;;;;;;;6.47;2.65;;;;;;;7.85;100.00;92740.09;5049121;28;20500;-82
2023/11/15 00:24:24;;;;;;;5.32;2.83;;;;;;;7.80;100.00;92716.13;5053514;28;20150;-82
2023/11/15 00:26:51;;;;;;;8.10;2.35;;;;;;;7.96;100.00;92738.66;5049063;28;20075;-83
2023/11/15 00:29:18;;;;;;;5.28;2.75;;;;;;;8.02;100.00;92735.28;5048419;28;20045;-82
2023/11/15 00:31:46;;;;;;;4.38;2.47;;;;;;;8.05;100.00;92731.53;5048551;28;20081;-82
2023/11/15 00:34:14;;;;;;;4.75;2.92;;;;;;;8.05;100.00;92716.19;5049300;28;20060;-82
2023/11/15 00:36:43;;;;;;;5.88;2.67;;;;;;;8.18;100.00;92727.34;5051043;28;20060;-83
2023/11/15 00:39:11;;;;;;;6.13;2.50;;;;;;;8.22;100.00;92725.91;5049044;28;20069;-83
2023/11/15 00:41:39;;;;;;;5.53;2.80;;;;;;;8.27;100.00;92732.00;5048800;28;20048;-82
2023/11/15 00:44:07;;;;;;;6.55;2.50;;;;;;;8.27;100.00;92744.78;5051108;28;20043;-82
2023/11/15 00:46:34;;;;;;;7.47;3.40;;;;;;;8.24;100.00;92754.66;5051908;28;20085;-82
2023/11/15 00:49:03;;;;;;;26.40;13.52;;;;;;;7.32;100.00;92726.53;5055429;28;20767;-82
2023/11/15 00:51:30;;;;;;;25.60;14.60;;;;;;;7.18;100.00;92733.44;5054558;28;20420;-82
2023/11/15 00:53:57;;;;;;;32.20;14.90;;;;;;;6.84;100.00;92749.81;5049096;28;20045;-82
2023/11/15 00:56:24;;;;;;;23.10;11.70;;;;;;;6.88;100.00;92756.88;5047475;28;20049;-82
2023/11/15 00:58:51;;;;;;;21.20;11.50;;;;;;;6.91;100.00;92756.47;5055764;28;20049;-82
2023/11/15 01:01:18;;;;;;;30.52;13.73;;;;;;;6.73;100.00;92749.44;5050281;28;20053;-82
2023/11/15 01:03:55;;;;;;;25.27;13.40;;;;;;;6.78;100.00;92759.03;5052415;28;20209;-82
2023/11/15 01:06:24;;;;;;;29.70;12.65;;;;;;;6.77;100.00;92763.34;5050308;28;20090;-82
2023/11/15 01:08:51;;;;;;;26.98;14.25;;;;;;;6.72;100.00;92760.63;5048491;28;20416;-82
2023/11/15 01:11:18;;;;;;;28.13;12.27;;;;;;;6.72;100.00;92747.06;5055701;28;20417;-82
2023/11/15 01:13:46;;;;;;;26.88;13.32;;;;;;;6.72;100.00;92742.75;5048348;28;20044;-82
2023/11/15 01:16:12;;;;;;;27.45;13.23;;;;;;;6.73;100.00;92725.66;5047741;28;20688;-83
2023/11/15 01:18:40;;;;;;;26.92;13.93;;;;;;;6.71;100.00;92730.19;5047874;28;20044;-82
2023/11/15 01:21:08;;;;;;;26.17;13.95;;;;;;;6.85;100.00;92721.50;5048358;28;20049;-83
2023/11/15 01:23:37;;;;;;;20.23;10.43;;;;;;;6.81;100.00;92710.16;5047714;28;20049;-83
2023/11/15 01:26:05;;;;;;;26.17;11.32;;;;;;;6.99;100.00;92721.50;5054675;28;20037;-82
2023/11/15 01:28:32;;;;;;;23.35;11.88;;;;;;;6.97;100.00;92711.50;5047778;28;20519;-80
2023/11/15 01:30:59;;;;;;;23.92;11.27;;;;;;;6.92;100.00;92717.19;5050692;28;20068;-81
2023/11/15 01:33:26;;;;;;;25.45;11.98;;;;;;;6.95;100.00;92716.03;5048170;28;20053;-81
2023/11/15 01:35:53;;;;;;;20.70;10.15;;;;;;;7.03;100.00;92718.34;5047956;28;20054;-82
2023/11/15 01:38:20;;;;;;;15.55;7.93;;;;;;;6.79;100.00;92677.16;5053880;28;20563;-82
2023/11/15 01:40:48;;;;;;;9.20;4.80;;;;;;;7.04;100.00;92709.69;5051798;28;20048;-82
2023/11/15 01:43:16;;;;;;;10.68;5.22;;;;;;;7.03;100.00;92669.84;5052755;28;20076;-83
2023/11/15 01:45:43;;;;;;;9.75;4.72;;;;;;;7.28;100.00;92704.94;5052285;28;20057;-83
2023/11/15 01:48:11;;;;;;;9.50;4.85;;;;;;;7.22;100.00;92675.06;5048794;28;20354;-83
2023/11/15 01:50:37;;;;;;;8.68;3.10;;;;;;;7.48;100.00;92704.88;5048824;28;20393;-83
2023/11/15 01:53:04;;;;;;;7.65;3.60;;;;;;;7.59;100.00;92690.66;5053749;28;20052;-80
2023/11/15 01:55:32;;;;;;;7.50;2.90;;;;;;;7.69;100.00;92677.44;5054674;28;20134;-80
2023/11/15 01:58:02;;;;;;;4.20;2.00;;;;;;;7.77;100.00;92668.72;5049143;28;20500;-82
2023/11/15 02:00:29;;;;;;;5.25;2.65;;;;;;;7.14;100.00;92556.06;5048377;28;20136;-82
2023/11/15 02:02:56;;;;;;;6.55;2.60;;;;;;;7.80;100.00;92631.75;5054328;28;20161;-82
2023/11/15 02:05:25;;;;;;;4.95;2.70;;;;;;;7.98;100.00;92654.06;5047847;28;20053;-82
2023/11/15 02:07:53;;;;;;;4.75;2.50;;;;;;;8.01;100.00;92654.44;5055367;28;20500;-83
2023/11/15 02:10:21;;;;;;;5.32;2.75;;;;;;;8.13;100.00;92646.09;5049632;28;20088;-83
2023/11/15 02:12:48;;;;;;;5.90;2.20;;;;;;;7.85;100.00;92589.25;5047665;28;20055;-82
2023/11/15 02:15:16;;;;;;;4.07;2.35;;;;;;;8.13;100.00;92621.28;5047306;28;20408;-83
2023/11/15 02:17:45;;;;;;;4.15;2.03;;;;;;;8.26;100.00;92634.97;5046663;28;20060;-83
2023/11/15 02:20:13;;;;;;;5.25;2.65;;;;;;;8.34;100.00;92629.56;5047088;28;20053;-82
2023/11/15 02:22:46;;;;;;;4.90;2.53;;;;;;;8.41;100.00;92630.31;5050819;28;20107;-83
2023/11/15 02:25:15;;;;;;;9.93;3.65;;;;;;;8.38;100.00;92635.84;5047115;28;20057;-81
2023/11/15 02:27:42;;;;;;;7.53;4.45;;;;;;;8.35;100.00;92620.94;5058339;28;20055;-82
2023/11/15 02:30:10;;;;;;;5.13;2.83;;;;;;;8.48;100.00;92621.81;5059071;28;20056;-80
2023/11/15 02:32:38;;;;;;;3.80;1.75;;;;;;;8.54;100.00;92633.78;5056005;28;20053;-80
2023/11/15 02:35:07;;;;;;;5.15;1.80;;;;;;;8.63;100.00;92631.72;5052172;28;20060;-80
2023/11/15 02:37:34;;;;;;;4.07;1.55;;;;;;;8.72;100.00;92645.81;5053126;28;20068;-80
2023/11/15 02:40:04;;;;;;;2.78;1.75;;;;;;;8.82;100.00;92653.03;5049714;28;20532;-81
2023/11/15 02:42:32;;;;;;;4.05;2.42;;;;;;;8.90;100.00;92639.94;5051028;28;20117;-82
2023/11/15 02:44:59;;;;;;;4.50;1.48;;;;;;;8.83;100.00;92605.91;5057382;28;20135;-82
2023/11/15 02:47:26;;;;;;;3.20;1.30;;;;;;;9.07;100.00;92622.22;5055971;28;20535;-81
2023/11/15 02:49:53;;;;;;;4.60;2.05;;;;;;;9.08;100.00;92616.09;5055825;28;20048;-81
2023/11/15 02:52:20;;;;;;;21.48;11.05;;;;;;;9.28;100.00;92630.47;5047488;28;20045;-82
2023/11/15 02:54:47;;;;;;;43.03;20.70;;;;;;;9.39;100.00;92623.03;5054460;28;20049;-82
2023/11/15 02:57:14;;;;;;;43.15;19.70;;;;;;;9.48;100.00;92624.28;5060955;28;20127;-81
2023/11/15 02:59:42;;;;;;;38.28;18.48;;;;;;;9.36;100.00;92606.31;5062566;28;20049;-82
2023/11/15 03:02:09;;;;;;;33.60;14.07;;;;;;;9.56;100.00;92620.63;5052891;28;20049;-83
2023/11/15 03:04:36;;;;;;;62.72;22.73;;;;;;;9.62;100.00;92627.47;5054352;28;20044;-82
2023/11/15 03:07:03;;;;;;;49.85;20.77;;;;;;;9.54;100.00;92610.59;5057857;28;20048;-82
2023/11/15 03:09:31;;;;;;;26.95;11.07;;;;;;;9.66;100.00;92631.16;5057320;28;20048;-82
2023/11/15 03:11:58;;;;;;;38.03;20.65;;;;;;;9.82;100.00;92632.31;5054757;28;20398;-80
2023/11/15 03:14:26;;;;;;;16.40;7.82;;;;;;;9.73;100.00;92606.19;5051596;28;20064;-81
2023/11/15 03:16:54;;;;;;;12.27;6.00;;;;;;;9.88;100.00;92622.97;5053298;28;20622;-81
2023/11/15 03:19:21;;;;;;;12.73;6.45;;;;;;;10.03;100.00;92633.63;5057169;28;20059;-81
2023/11/15 03:21:48;;;;;;;6.05;3.10;;;;;;;9.95;100.00;92598.00;5054068;28;20051;-81
2023/11/15 03:24:15;;;;;;;4.55;2.05;;;;;;;10.15;100.00;92623.34;5055360;28;20048;-83
2023/11/15 03:26:41;;;;;;;4.32;1.88;;;;;;;10.14;100.00;92615.91;5056010;28;20048;-83
2023/11/15 03:29:08;;;;;;;4.22;1.60;;;;;;;10.13;100.00;92599.69;5059998;28;20040;-81
2023/11/15 03:31:35;;;;;;;4.78;2.55;;;;;;;9.98;100.00;92563.41;5056572;28;20051;-79
2023/11/15 03:34:04;;;;;;;4.63;3.08;;;;;;;10.24;100.00;92610.22;5051482;28;20045;-83
2023/11/15 03:36:32;;;;;;;4.70;2.15;;;;;;;10.32;100.00;92603.97;5053615;28;20131;-82
2023/11/15 03:38:59;;;;;;;4.28;1.95;;;;;;;10.30;100.00;92593.91;5055709;28;20080;-84
2023/11/15 03:41:26;;;;;;;3.17;1.45;;;;;;;10.42;100.00;92601.63;5058567;28;20052;-83
2023/11/15 03:43:53;;;;;;;2.67;1.20;;;;;;;10.42;100.00;92596.50;5058402;28;20041;-84
2023/11/15 03:46:20;;;;;;;4.88;1.90;;;;;;;10.52;100.00;92590.81;5054293;28;20504;-83
2023/11/15 03:48:47;;;;;;;3.67;1.73;;;;;;;10.50;100.00;92585.09;5058273;28;20044;-82
2023/11/15 03:51:15;;;;;;;4.15;1.75;;;;;;;10.60;100.00;92582.00;5054389;28;20037;-84
2023/11/15 03:53:42;;;;;;;4.47;1.70;;;;;;;10.69;100.00;92583.19;5056087;28;20048;-83
2023/11/15 03:56:09;;;;;;;3.03;1.60;;;;;;;10.55;100.00;92552.63;5060318;28;20044;-85
2023/11/15 03:58:37;;;;;;;2.80;1.20;;;;;;;10.83;100.00;92583.72;5059404;28;20048;-81
2023/11/15 04:01:05;;;;;;;2.75;1.00;;;;;;;11.05;100.00;92578.00;5057680;28;20041;-83
2023/11/15 04:03:32;;;;;;;2.13;1.00;;;;;;;11.14;100.00;92579.19;5058715;28;20036;-82
2023/11/15 04:06:02;;;;;;;3.17;1.30;;;;;;;11.14;100.00;92558.63;5058111;28;20127;-82
2023/11/15 04:08:30;;;;;;;5.88;1.70;;;;;;;11.30;100.00;92577.69;5058406;28;20815;-82
2023/11/15 04:10:58;;;;;;;2.90;1.50;;;;;;;11.31;99.63;92558.69;5059885;28;20588;-84
2023/11/15 04:13:25;;;;;;;3.25;1.65;;;;;;;11.42;99.07;92566.56;5055038;28;20059;-81
2023/11/15 04:15:54;;;;;;;3.85;1.40;;;;;;;11.55;98.15;92566.31;5056795;28;20037;-82
2023/11/15 04:18:21;;;;;;;3.45;1.63;;;;;;;11.61;97.87;92557.66;5053652;28;20083;-82
2023/11/15 04:20:48;;;;;;;3.70;1.30;;;;;;;11.72;97.42;92552.69;5055840;28;20083;-84
2023/11/15 04:23:14;;;;;;;4.57;1.42;;;;;;;11.76;97.21;92549.41;5052194;28;20048;-83
2023/11/15 04:25:43;;;;;;;3.97;1.33;;;;;;;11.81;97.01;92543.56;5051900;28;20424;-84
2023/11/15 04:28:09;;;;;;;4.20;1.30;;;;;;;11.92;96.76;92552.22;5051198;28;21024;-83
2023/11/15 04:30:36;;;;;;;3.33;1.33;;;;;;;12.00;96.13;92536.38;5049916;28;20496;-83
2023/11/15 04:33:03;;;;;;;2.83;1.30;;;;;;;11.97;95.81;92539.44;5054523;28;20588;-83
2023/11/15 04:35:30;;;;;;;4.30;1.17;;;;;;;11.90;95.65;92526.72;5053647;28;20052;-84
2023/11/15 04:37:57;;;;;;;4.15;1.33;;;;;;;11.92;96.30;92536.78;5056699;28;20051;-82
2023/11/15 04:40:25;;;;;;;4.60;1.80;;;;;;;11.82;96.04;92529.69;5052358;28;20412;-82
2023/11/15 04:42:54;;;;;;;6.68;2.03;;;;;;;11.80;96.00;92526.56;5052549;28;20135;-83
2023/11/15 04:45:21;;;;;;;5.72;2.17;;;;;;;11.81;95.72;92522.19;5055348;28;20041;-84
2023/11/15 04:47:48;;;;;;;4.65;1.98;;;;;;;11.77;95.44;92522.66;5054229;28;20049;-81
2023/11/15 04:50:15;;;;;;;5.65;1.90;;;;;;;11.63;95.66;92506.75;5055051;28;20044;-81
2023/11/15 04:52:41;;;;;;;8.60;1.90;;;;;;;11.68;96.14;92510.41;5052556;28;20048;-81
2023/11/15 04:55:10;;;;;;;8.75;1.85;;;;;;;11.47;96.15;92480.00;5056701;28;20424;-81
2023/11/15 04:57:37;;;;;;;6.75;2.15;;;;;;;11.67;96.36;92508.88;5054074;28;20106;-82
2023/11/15 05:00:10;;;;;;;4.38;1.80;;;;;;;11.54;97.15;92487.59;5055677;28;20416;-82
2023/11/15 05:02:37;;;;;;;3.33;1.42;;;;;;;11.57;97.53;92491.50;5055252;28;20501;-82
2023/11/15 05:05:06;;;;;;;4.50;1.13;;;;;;;11.55;97.49;92498.63;5058119;28;20049;-83
2023/11/15 05:07:33;;;;;;;4.20;1.15;;;;;;;11.41;97.42;92457.00;5058325;28;20048;-83
2023/11/15 05:10:02;;;;;;;7.82;2.40;;;;;;;11.63;97.10;92490.56;5058526;28;20044;-84
2023/11/15 05:12:29;;;;;;;3.15;1.20;;;;;;;11.69;96.06;92489.63;5056427;28;20048;-82
2023/11/15 05:14:56;;;;;;;5.72;1.70;;;;;;;11.64;96.28;92489.53;5056059;28;20398;-83
2023/11/15 05:17:25;;;;;;;4.00;1.10;;;;;;;11.76;95.38;92492.03;5052061;28;20485;-82
2023/11/15 05:19:52;;;;;;;3.42;1.08;;;;;;;11.77;94.67;92491.78;5058571;28;20390;-82
2023/11/15 05:22:19;;;;;;;4.53;1.27;;;;;;;11.66;95.19;92458.44;5058795;28;20041;-82
2023/11/15 05:24:46;;;;;;;4.95;1.38;;;;;;;11.79;94.43;92488.22;5054887;28;20061;-82
2023/11/15 05:27:13;;;;;;;3.35;1.27;;;;;;;11.80;94.51;92484.63;5051059;28;20044;-82
2023/11/15 05:29:40;;;;;;;3.78;1.10;;;;;;;11.84;94.67;92481.34;5056924;28;20057;-82
2023/11/15 05:32:08;;;;;;;4.28;1.20;;;;;;;11.83;94.51;92472.06;5057929;28;20041;-83
2023/11/15 05:34:36;;;;;;;5.07;1.70;;;;;;;11.82;94.20;92470.50;5053087;28;20582;-83
2023/11/15 05:37:03;;;;;;;3.85;1.42;;;;;;;11.68;94.68;92456.41;5055937;28;20044;-81
2023/11/15 05:39:30;;;;;;;5.32;1.63;;;;;;;11.80;94.61;92469.94;5057481;28;20380;-83
2023/11/15 05:41:57;;;;;;;4.90;1.65;;;;;;;11.82;94.35;92464.56;5053111;28;20045;-82
2023/11/15 05:44:24;;;;;;;5.00;1.48;;;;;;;11.85;94.26;92466.69;5056180;28;20041;-83
2023/11/15 05:46:51;;;;;;;5.18;1.65;;;;;;;11.90;94.09;92472.69;5049152;28;20155;-82
2023/11/15 05:49:17;;;;;;;5.03;1.30;;;;;;;11.87;94.34;92460.28;5050297;28;20041;-84
2023/11/15 05:51:46;;;;;;;3.83;1.50;;;;;;;11.91;95.07;92465.75;5052013;28;20706;-82
2023/11/15 05:54:12;;;;;;;4.30;1.38;;;;;;;11.98;95.38;92474.06;5051990;28;20055;-82
2023/11/15 05:56:46;;;;;;;6.05;1.92;;;;;;;12.01;94.93;92467.69;5052417;28;20049;-81
2023/11/15 05:59:13;;;;;;;5.82;1.80;;;;;;;12.07;94.83;92489.16;5053648;28;20068;-82
2023/11/15 06:01:40;;;;;;;2.88;1.38;;;;;;;12.09;94.86;92466.53;5054729;28;20063;-82
2023/11/15 06:04:08;;;;;;;3.97;1.48;;;;;;;11.84;94.34;92429.09;5055086;28;20036;-83
2023/11/15 06:06:35;;;;;;;2.70;1.10;;;;;;;12.02;95.00;92458.94;5052828;28;20041;-81
2023/11/15 06:09:04;;;;;;;6.88;1.90;;;;;;;12.18;94.73;92477.19;5052316;28;20048;-81
2023/11/15 06:11:32;;;;;;;5.55;1.63;;;;;;;12.16;94.74;92480.78;5050929;28;20049;-83
2023/11/15 06:13:59;;;;;;;4.47;1.42;;;;;;;12.17;95.70;92484.13;5055189;28;20041;-83
2023/11/15 06:16:26;;;;;;;3.75;1.20;;;;;;;12.26;95.06;92485.28;5052955;28;20951;-82
2023/11/15 06:18:53;;;;;;;3.17;1.20;;;;;;;12.25;94.91;92488.09;5048938;28;20125;-82
2023/11/15 06:21:20;;;;;;;1.85;1.00;;;;;;;12.38;94.18;92482.63;5051475;28;20611;-83
2023/11/15 06:23:47;;;;;;;2.08;1.05;;;;;;;12.42;94.08;92480.34;5049965;28;20041;-82
2023/11/15 06:26:16;;;;;;;2.28;1.10;;;;;;;12.41;93.30;92482.13;5051718;28;20122;-84
2023/11/15 06:28:42;;;;;;;4.28;1.15;;;;;;;12.48;92.58;92476.00;5052949;28;20040;-85
2023/11/15 06:31:09;;;;;;;3.40;1.10;;;;;;;12.54;92.26;92475.06;5054424;28;20037;-83
2023/11/15 06:33:37;;;;;;;4.82;1.15;;;;;;;12.46;92.09;92465.19;5062247;28;20051;-84
2023/11/15 06:36:05;;;;;;;2.75;1.52;;;;;;;12.41;92.43;92465.91;5058496;28;20137;-84
2023/11/15 06:38:34;;;;;;;1.65;1.10;;;;;;;12.63;92.14;92506.34;5057013;28;20048;-83
2023/11/15 06:41:01;;;;;;;2.40;1.10;;;;;;;12.68;91.94;92493.50;5058640;28;20067;-83
2023/11/15 06:43:29;;;;;;;2.95;1.40;;;;;;;12.68;91.79;92483.19;5059501;28;20497;-83
2023/11/15 06:45:56;;;;;;;5.88;2.00;;;;;;;12.60;91.31;92479.28;5052614;28;20507;-84
2023/11/15 06:48:23;;;;;;;2.40;0.95;;;;;;;12.48;91.38;92453.63;5058918;28;20045;-84
2023/11/15 06:50:51;;;;;;;1.88;0.80;;;;;;;12.63;90.76;92476.19;5060156;28;20167;-83
2023/11/15 06:53:17;;;;;;;4.60;1.05;;;;;;;12.66;91.71;92478.31;5059084;28;20049;-83
2023/11/15 06:55:46;;;;;;;2.38;1.05;;;;;;;12.78;91.99;92485.91;5051027;28;20052;-84
2023/11/15 06:58:15;;;;;;;4.32;1.63;;;;;;;12.88;91.15;92492.19;5052428;28;20052;-82
2023/11/15 07:00:44;;;;;;;4.45;1.95;;;;;;;12.93;90.91;92493.03;5052974;28;20052;-83
2023/11/15 07:03:12;;;;;;;3.05;1.80;;;;;;;12.96;90.47;92489.97;5056721;28;20461;-84
2023/11/15 07:05:40;;;;;;;3.20;1.60;;;;;;;13.04;90.49;92500.84;5061830;28;20118;-82
2023/11/15 07:08:11;;;;;;;5.40;2.08;;;;;;;13.13;90.17;92509.72;5056213;28;20520;-83
2023/11/15 07:10:38;;;;;;;2.72;1.55;;;;;;;13.15;89.78;92507.69;5059654;28;20044;-84
2023/11/15 07:13:08;;;;;;;3.70;1.17;;;;;;;13.12;89.60;92500.44;5059992;28;20413;-83
2023/11/15 07:15:35;;;;;;;4.18;1.50;;;;;;;13.14;89.05;92488.06;5055777;28;20785;-83
2023/11/15 07:18:03;;;;;;;3.22;1.42;;;;;;;13.33;89.53;92501.41;5051524;28;20470;-81
2023/11/15 07:20:30;;;;;;;4.35;1.67;;;;;;;13.49;88.96;92497.22;5054183;28;20610;-83
2023/11/15 07:22:57;;;;;;;5.57;2.00;;;;;;;13.59;88.33;92514.56;5053197;28;20045;-84
2023/11/15 07:25:25;;;;;;;6.60;2.28;;;;;;;13.71;88.40;92516.22;5053483;28;20045;-82
2023/11/15 07:27:55;;;;;;;4.18;1.60;;;;;;;13.79;87.44;92505.44;5053378;28;20522;-82
2023/11/15 07:30:22;;;;;;;6.47;1.80;;;;;;;13.92;87.60;92501.66;5058973;28;20464;-82
2023/11/15 07:32:50;;;;;;;3.30;1.38;;;;;;;13.89;87.22;92490.00;5056051;28;20076;-82
2023/11/15 07:35:18;;;;;;;2.88;1.17;;;;;;;13.98;86.49;92498.06;5058757;28;20071;-83
2023/11/15 07:37:45;;;;;;;4.60;1.40;;;;;;;14.10;86.97;92492.75;5057653;28;20136;-82
2023/11/15 07:40:13;;;;;;;3.75;1.63;;;;;;;14.07;86.67;92487.31;5056822;28;20080;-82
2023/11/15 07:42:40;;;;;;;4.07;1.30;;;;;;;14.14;86.75;92493.81;5059271;28;20071;-82
2023/11/15 07:45:09;;;;;;;2.67;0.90;;;;;;;14.05;86.31;92479.78;5056457;28;20045;-82
2023/11/15 07:47:36;;;;;;;3.53;1.13;;;;;;;14.03;86.64;92480.03;5052232;28;20106;-82
2023/11/15 07:50:04;;;;;;;5.97;2.33;;;;;;;14.07;87.02;92476.97;5054326;28;20087;-82
2023/11/15 07:52:33;;;;;;;3.08;1.30;;;;;;;14.05;86.89;92481.59;5051741;28;20040;-81
2023/11/15 07:54:59;;;;;;;4.10;1.20;;;;;;;13.87;86.83;92437.06;5053756;28;20056;-83
2023/11/15 07:57:26;;;;;;;2.85;1.20;;;;;;;14.23;86.36;92480.41;5053258;28;20051;-83
2023/11/15 07:59:53;;;;;;;2.80;1.08;;;;;;;14.21;86.38;92474.72;5055900;28;20059;-82
2023/11/15 08:02:20;;;;;;;4.43;1.10;;;;;;;13.94;86.89;92426.53;5053356;28;20829;-82
2023/11/15 08:04:47;;;;;;;4.95;1.00;;;;;;;14.13;86.66;92460.47;5054815;28;20153;-84
2023/11/15 08:07:14;;;;;;;4.35;0.88;;;;;;;14.28;86.70;92477.84;5052132;28;20053;-82
2023/11/15 08:09:42;;;;;;;5.10;0.95;;;;;;;14.13;86.67;92455.31;5058381;28;20071;-84
2023/11/15 08:12:09;;;;;;;1.98;0.80;;;;;;;14.30;86.75;92466.25;5056212;28;20052;-84
2023/11/15 08:14:36;;;;;;;2.30;1.02;;;;;;;14.29;86.51;92467.28;5055784;28;20064;-85
2023/11/15 08:17:03;;;;;;;6.63;1.35;;;;;;;14.18;87.32;92445.00;5056861;28;20056;-83
2023/11/15 08:19:30;;;;;;;4.15;1.42;;;;;;;14.36;87.45;92481.78;5057348;28;20105;-84
2023/11/15 08:21:57;;;;;;;3.40;1.20;;;;;;;14.40;87.06;92460.34;5054970;28;20424;-84
2023/11/15 08:24:25;;;;;;;4.80;1.65;;;;;;;14.30;87.56;92455.91;5053481;28;20044;-83
2023/11/15 08:26:55;;;;;;;4.15;1.30;;;;;;;14.26;87.76;92456.69;5051110;28;20095;-84
2023/11/15 08:29:23;;;;;;;4.25;1.27;;;;;;;14.11;88.08;92439.28;5053809;28;20037;-84
2023/11/15 08:31:50;;;;;;;5.45;1.35;;;;;;;14.25;88.23;92461.06;5051403;28;20493;-83
2023/11/15 08:34:19;;;;;;;2.63;1.05;;;;;;;14.24;88.63;92456.13;5051397;28;20071;-81
2023/11/15 08:36:48;;;;;;;3.58;1.50;;;;;;;14.19;88.95;92459.47;5052185;28;20049;-84
2023/11/15 08:39:15;;;;;;;4.90;1.40;;;;;;;14.14;89.40;92467.19;5055804;28;20131;-83
2023/11/15 08:41:42;;;;;;;6.15;1.73;;;;;;;14.20;89.95;92476.53;5057792;28;20055;-84
2023/11/15 08:44:10;;;;;;;6.43;2.58;;;;;;;14.10;90.45;92463.53;5053047;28;20067;-83
2023/11/15 08:46:42;;;;;;;5.95;2.53;;;;;;;14.11;90.65;92468.47;5058709;28;20041;-82
2023/11/15 08:49:15;;;;;;;5.35;2.42;;;;;;;14.19;90.67;92462.06;5057163;28;20505;-83
2023/11/15 08:51:42;;;;;;;7.30;2.70;;;;;;;14.32;90.73;92486.66;5058864;28;20143;-83
2023/11/15 08:54:10;;;;;;;7.05;2.83;;;;;;;14.18;91.00;92455.34;5055431;28;20058;-83
2023/11/15 08:56:38;;;;;;;6.30;2.72;;;;;;;14.43;91.28;92490.06;5058445;28;20057;-83
2023/11/15 08:59:06;;;;;;;6.47;2.60;;;;;;;14.40;91.62;92491.34;5058334;28;20044;-83
2023/11/15 09:01:35;;;;;;;8.35;4.38;;;;;;;14.53;90.97;92490.13;5058277;28;20059;-80
2023/11/15 09:04:01;;;;;;;10.25;4.55;;;;;;;14.39;90.96;92453.63;5055423;28;20078;-82
2023/11/15 09:06:28;;;;;;;9.23;4.00;;;;;;;14.72;90.99;92494.84;5056919;28;20048;-83
2023/11/15 09:08:55;;;;;;;12.10;4.18;;;;;;;14.83;90.05;92493.13;5058395;28;20048;-83
2023/11/15 09:11:22;;;;;;;6.70;3.30;;;;;;;14.89;89.81;92496.47;5052247;28;20102;-83
2023/11/15 09:13:49;;;;;;;10.98;3.10;;;;;;;14.87;90.66;92489.00;5057771;28;20053;-83
2023/11/15 09:16:19;;;;;;;6.28;2.50;;;;;;;14.96;89.04;92494.47;5057588;28;20045;-83
2023/11/15 09:18:48;;;;;;;6.10;2.40;;;;;;;14.78;89.09;92449.94;5055847;28;20075;-83
2023/11/15 09:21:15;;;;;;;14.02;5.50;;;;;;;14.87;90.83;92501.94;5053375;28;20125;-83
2023/11/15 09:23:43;;;;;;;8.48;4.57;;;;;;;14.95;90.26;92513.59;5059328;28;20060;-82
2023/11/15 09:26:18;;;;;;;13.23;5.32;;;;;;;14.84;89.30;92497.25;5051832;28;20503;-82
2023/11/15 09:28:45;;;;;;;16.33;6.75;;;;;;;15.05;90.98;92526.53;5054915;28;20048;-83
2023/11/15 09:31:13;;;;;;;13.15;6.63;;;;;;;14.90;89.83;92534.25;5052857;28;20048;-83
2023/11/15 09:33:40;;;;;;;8.25;3.65;;;;;;;14.85;90.65;92552.34;5052476;28;20059;-83
2023/11/15 09:36:10;;;;;;;10.80;3.20;;;;;;;14.71;95.25;92555.34;5057035;28;20499;-82
2023/11/15 09:38:37;;;;;;;8.57;2.80;;;;;;;14.80;96.98;92558.25;5056482;28;20057;-83
2023/11/15 09:41:10;;;;;;;6.85;2.25;;;;;;;14.76;98.30;92557.22;5057291;28;20158;-83
2023/11/15 09:43:37;;;;;;;6.05;2.53;;;;;;;14.66;98.27;92557.88;5052564;28;20044;-83
2023/11/15 09:46:08;;;;;;;6.50;3.15;;;;;;;14.56;100.00;92567.16;5054338;28;20052;-83
2023/11/15 09:48:38;;;;;;;6.43;3.00;;;;;;;14.27;100.00;92574.47;5052282;28;20111;-84
2023/11/15 09:51:09;;;;;;;9.00;4.55;;;;;;;13.89;100.00;92572.63;5051173;28;20041;-83
2023/11/15 09:53:38;;;;;;;11.35;4.55;;;;;;;13.58;100.00;92603.34;5055162;28;20493;-85
2023/11/15 09:56:07;;;;;;;8.68;4.78;;;;;;;13.28;100.00;92601.19;5049922;28;20462;-83
2023/11/15 09:58:35;;;;;;;9.30;4.18;;;;;;;12.97;100.00;92611.91;5049289;28;20041;-84
2023/11/15 10:01:02;;;;;;;4.78;2.70;;;;;;;12.68;100.00;92614.59;5057430;28;20048;-84
2023/11/15 10:03:29;;;;;;;5.70;2.95;;;;;;;12.67;100.00;92611.28;5053467;28;20041;-83
2023/11/15 10:05:59;;;;;;;5.72;3.17;;;;;;;12.46;100.00;92592.19;5049133;28;20051;-83
2023/11/15 10:08:26;;;;;;;4.80;2.40;;;;;;;12.46;100.00;92589.59;5055954;28;20111;-83
2023/11/15 10:11:04;;;;;;;3.20;2.05;;;;;;;12.48;100.00;92618.47;5056451;28;20044;-84
2023/11/15 10:13:31;;;;;;;3.65;2.00;;;;;;;12.25;100.00;92629.72;5054561;28;20110;-83
2023/11/15 10:15:58;;;;;;;2.47;1.17;;;;;;;11.85;100.00;92621.09;5057664;28;20051;-85
2023/11/15 10:18:33;;;;;;;1.88;0.85;;;;;;;11.82;100.00;92636.97;5047840;28;20170;-84
2023/11/15 10:21:10;;;;;;;2.28;1.30;;;;;;;11.56;100.00;92650.16;5049247;28;20519;-84
2023/11/15 10:23:37;;;;;;;2.65;1.30;;;;;;;11.47;100.00;92636.88;5048731;28;20444;-85
2023/11/15 10:26:06;;;;;;;1.85;1.10;;;;;;;11.40;100.00;92651.69;5048314;28;20056;-85
2023/11/15 10:28:39;;;;;;;3.30;1.70;;;;;;;11.41;100.00;92653.25;5048359;28;20045;-84
2023/11/15 10:31:07;;;;;;;4.80;3.45;;;;;;;11.58;100.00;92657.66;5050470;28;20060;-84
2023/11/15 10:33:37;;;;;;;8.95;4.55;;;;;;;11.49;100.00;92670.88;5049726;28;20150;-85
2023/11/15 10:36:16;;;;;;;5.68;2.75;;;;;;;11.55;100.00;92661.47;5049733;28;20136;-84
2023/11/15 10:38:44;;;;;;;7.03;3.92;;;;;;;11.55;100.00;92661.47;5050386;28;20045;-85
2023/11/15 10:41:17;;;;;;;4.63;1.80;;;;;;;11.36;100.00;92651.34;5048236;28;20081;-84
2023/11/15 10:43:46;;;;;;;10.02;3.70;;;;;;;11.55;100.00;92674.34;5049277;28;20045;-85
2023/11/15 10:46:16;;;;;;;5.47;2.50;;;;;;;11.65;100.00;92673.72;5048576;28;20045;-84
2023/11/15 10:48:45;;;;;;;4.93;2.40;;;;;;;11.46;100.00;92658.47;5048520;28;20080;-85
2023/11/15 10:51:23;;;;;;;5.50;2.95;;;;;;;11.60;100.00;92679.56;5046901;28;20401;-84
2023/11/15 10:53:50;;;;;;;5.88;2.03;;;;;;;11.46;100.00;92679.06;5048164;28;21007;-82
2023/11/15 10:56:22;;;;;;;4.22;1.60;;;;;;;11.42;100.00;92680.50;5060511;28;20045;-81
2023/11/15 10:58:50;;;;;;;3.30;1.83;;;;;;;11.30;100.00;92679.75;5051821;28;20060;-83
2023/11/15 11:01:18;;;;;;;3.47;1.40;;;;;;;11.04;100.00;92666.38;5049225;28;20056;-82
2023/11/15 11:03:49;;;;;;;5.15;3.40;;;;;;;11.11;100.00;92676.56;5049605;28;20056;-83
2023/11/15 11:06:24;;;;;;;5.38;2.20;;;;;;;10.93;100.00;92691.88;5052038;28;20052;-82
2023/11/15 11:09:02;;;;;;;7.63;3.17;;;;;;;10.76;100.00;92699.47;5051268;28;20122;-84
2023/11/15 11:11:40;;;;;;;6.15;2.78;;;;;;;10.52;100.00;92658.34;5049295;28;20159;-83
2023/11/15 11:14:21;;;;;;;6.78;2.25;;;;;;;10.73;100.00;92694.00;5050607;28;20048;-83
2023/11/15 11:16:49;;;;;;;12.60;6.43;;;;;;;10.74;100.00;92688.63;5053905;28;20542;-83
2023/11/15 11:19:21;;;;;;;11.13;5.43;;;;;;;10.80;100.00;92694.66;5051473;28;20048;-83
2023/11/15 11:22:04;;;;;;;3.05;1.27;;;;;;;10.80;100.00;92708.28;5054120;28;20166;-83
2023/11/15 11:24:31;;;;;;;6.50;2.10;;;;;;;10.76;100.00;92688.41;5052512;28;20050;-84
2023/11/15 11:27:30;;;;;;;7.30;3.63;;;;;;;11.05;100.00;92696.22;5052359;28;20111;-84
2023/11/15 11:30:23;;;;;;;9.25;4.25;;;;;;;11.19;100.00;92712.19;5049929;28;20056;-84
2023/11/15 11:33:06;;;;;;;7.32;4.40;;;;;;;11.29;100.00;92702.09;5052822;28;20056;-84
2023/11/15 11:35:35;;;;;;;14.68;12.25;;;;;;;11.32;100.00;92708.59;5051773;28;20103;-84